Aérodrome :
LOGIN :

S'inscrire | Disclaimer

   EN    FR    IT 

 










Légende :    VFR   VFR Marginal   IFR   IFR Intensif   IFR Très Intensif
Visi : 
Plafond : 
>= 8 km
>= 3000ft
5 à 8 km
1000 à 3000 ft
1500m à 5 km
500 à 1000 ft
800 à 1500m
200 à 500 ft
< 800m
< 200 ft
Symboles :   Orages  Brouillard  Fortes neiges  Fortes précipitations  Vent > 20 kt
SIGMETs :   Divers  Orages  Givrage  Turbulence  Onde Orograph.  Cendres Volcan.






- Altitude de l'aérodrome : 39 ft
- Code IATA : ANR


EBAW - Anvers / Antwerpen Deurne

DERNIER METAR :
  • 161220Z 22009KT 180V250 9999 -SHRA FEW021CB 17/15 Q1011 NOSIG

METARs EXPIRÉS :
  • 161150Z 23012KT 8000 -SHRA SCT021CB 16/14 Q1011 TEMPO 21015G25KT 2500 +SHRA
  • 161120Z 21009KT 7000 -SHRA SCT021CB 18/15 Q1011 TEMPO 21015G25KT 2500 +SHRA
  • 161050Z 22011KT 170V250 9999 -SHRA SCT021CB 19/13 Q1011 TEMPO 21015G25KT 3000 SHRA
  • 161020Z 21011KT 9999 -SHRA SCT021TCU 19/13 Q1010 TEMPO 4000 SHRA
  • 160950Z 21011KT 170V240 9999 -SHRA SCT021TCU 19/13 Q1010 TEMPO 4000 SHRA
  • 160920Z 21012KT 170V240 9999 SCT021TCU 20/13 Q1010 TEMPO 4000 SHRA
  • 160850Z 21010KT 9999 SCT021 18/13 Q1010 TEMPO 4000 SHRA
  • 160820Z 20010KT 170V230 9999 SCT021 18/14 Q1010 NOSIG
  • 160750Z 21011KT 9999 SCT021 18/14 Q1010 NOSIG
  • 160720Z 21011KT 180V240 9999 SCT021 18/14 Q1010 NOSIG

TAF TAF EBAW
Valide du 16 à 12h jusqu'au 16 à 21h UTC


161110Z 1612/1621 23012KT 9999 FEW025TCU
PROB40
TEMPO 1612/1618 23015G25KT 4000 SHRA SCT012 SCT025CB
PROB40
TEMPO 1618/1621 BKN014



MET'MAP, la Météo Aéronautique d'un coup d'oeil ! - Copyright ORBIFLY Décembre 2007 - Disclaimer

ORBIFLY MET'MAP TEAM :

Programmation & Développement : Alexandra Zaïnal
Sur une idée originale de : Baudouin d'Aumeries
Soutien technique & logistique : Manuel Goepfert
Assistance : Marc-Olivier Méhu




SOURCES & CREDITS :

   NOAA